Terminal Aerodrome Forecast
Issued by NWS Charleston, WV

Home | Current Version | Previous Version | Text Only | Print | Product List | Glossary On
Versions: 1 2 3 4 5 6 7 8 9 10 11 12 13 14 15 16 17 18 19 20 21
000
FTUS41 KRLX 270901 AAA
TAFPKB
TAF AMD
KPKB 270901Z 2709/2806 17006KT P6SM SKC
     FM271500 19009G16KT P6SM SCT040
     FM271600 19010G22KT P6SM BKN050
      TEMPO 2717/2720 4SM SHRA OVC025
     FM272000 21009G16KT P6SM BKN040
     FM272300 25008KT P6SM BKN035
     FM280200 26006KT P6SM SCT250=

USA.gov is the U.S. government's official web portal to all federal, state and local government web resources and services.